Time;durP1;ratioP1;P1;durP2;ratioP2;P2;SDS_P1;SDS_P2;PMS_P1;PMS_P2;Temp;Humidity;BMP_temperature;BMP_pressure;BME280_temperature;BME280_humidity;BME280_pressure;Samples;Min_cycle;Max_cycle;Signal;HPM_P1;HPM_P2
2022/11/22 00:02:17;;;;;;;;;0.50;0.50;;;;;8.27;63.84;99053.56;5037682;28;45489;-62
2022/11/22 00:04:42;;;;;;;;;2.00;2.00;;;;;8.30;64.83;99056.25;5030090;28;45392;-64
2022/11/22 00:07:08;;;;;;;;;1.00;0.75;;;;;8.25;64.51;99043.78;5049147;28;45270;-63
2022/11/22 00:09:33;;;;;;;;;3.25;1.00;;;;;8.30;63.66;99055.38;5050450;28;45918;-65
2022/11/22 00:11:59;;;;;;;;;2.25;1.00;;;;;8.17;64.69;99040.19;5051289;28;45107;-63
2022/11/22 00:14:24;;;;;;;;;1.50;1.00;;;;;8.27;64.28;99060.69;5051594;28;45251;-66
2022/11/22 00:16:49;;;;;;;;;2.00;2.00;;;;;8.23;64.01;99057.09;5051910;28;45143;-66
2022/11/22 00:19:15;;;;;;;;;3.00;1.00;;;;;8.32;64.52;99069.59;5047663;28;45554;-64
2022/11/22 00:21:40;;;;;;;;;2.00;1.75;;;;;8.32;63.58;99071.38;5042040;28;45302;-65
2022/11/22 00:24:05;;;;;;;;;2.25;1.00;;;;;8.27;63.59;99066.00;5042733;28;45341;-63
2022/11/22 00:26:31;;;;;;;;;0.75;0.00;;;;;8.30;64.72;99068.69;5055102;28;45066;-66
2022/11/22 00:28:56;;;;;;;;;2.50;1.00;;;;;8.30;64.41;99063.38;5035990;28;47430;-66
2022/11/22 00:31:22;;;;;;;;;3.00;2.00;;;;;8.28;63.47;99063.34;5054517;28;44875;-64
2022/11/22 00:33:48;;;;;;;;;1.00;1.00;;;;;8.05;64.66;99028.56;5050535;28;45327;-65
2022/11/22 00:36:15;;;;;;;;;2.50;0.00;;;;;8.34;64.37;99053.63;5051712;28;45418;-63
2022/11/22 00:38:41;;;;;;;;;1.25;1.25;;;;;8.32;63.98;99050.97;5051982;28;45486;-66
2022/11/22 00:41:07;;;;;;;;;2.75;0.75;;;;;8.34;63.31;99058.97;5052645;28;45566;-67
2022/11/22 00:43:35;;;;;;;;;0.75;0.75;;;;;8.32;62.96;99050.97;5045909;28;45508;-64
2022/11/22 00:46:00;;;;;;;;;0.00;0.00;;;;;8.20;63.33;99040.19;5041300;28;45371;-64
2022/11/22 00:48:26;;;;;;;;;2.00;1.00;;;;;8.25;63.87;99054.44;5021262;28;47211;-65
2022/11/22 00:50:52;;;;;;;;;1.00;1.00;;;;;8.24;63.61;99061.53;5048851;28;45138;-65
2022/11/22 00:53:17;;;;;;;;;2.75;1.50;;;;;8.06;63.58;99026.81;5045804;28;45360;-65
2022/11/22 00:55:44;;;;;;;;;1.00;0.75;;;;;8.17;63.67;99035.75;5032514;28;45692;-65
2022/11/22 00:58:09;;;;;;;;;2.00;1.00;;;;;8.33;63.68;99057.16;5050576;28;45876;-64
2022/11/22 01:00:35;;;;;;;;;2.75;2.75;;;;;8.28;63.01;99047.38;5050454;28;45394;-62
2022/11/22 01:03:00;;;;;;;;;1.25;0.00;;;;;8.40;63.50;99067.00;5051989;28;44982;-63
2022/11/22 01:05:26;;;;;;;;;1.75;1.00;;;;;8.23;63.30;99032.25;5040827;28;45342;-63
2022/11/22 01:07:52;;;;;;;;;1.00;1.00;;;;;8.24;63.83;99036.69;5044071;28;46167;-64
2022/11/22 01:10:17;;;;;;;;;3.00;1.00;;;;;8.20;63.85;99027.81;5033928;28;45576;-64
2022/11/22 01:12:42;;;;;;;;;2.75;0.75;;;;;8.41;63.79;99047.47;5046564;28;45391;-61
2022/11/22 01:15:08;;;;;;;;;0.25;0.25;;;;;8.41;63.58;99066.97;5042062;28;45547;-64
2022/11/22 01:17:34;;;;;;;;;2.75;1.00;;;;;8.36;63.88;99050.09;5028877;28;45416;-64
2022/11/22 01:19:59;;;;;;;;;1.00;1.00;;;;;8.35;63.47;99036.78;5050996;28;45207;-62
2022/11/22 01:22:24;;;;;;;;;2.75;0.00;;;;;8.34;63.02;99049.19;5051265;28;45908;-62
2022/11/22 01:24:50;;;;;;;;;0.75;0.25;;;;;8.34;63.26;99046.53;5051941;28;45229;-64
2022/11/22 01:27:15;;;;;;;;;3.00;1.50;;;;;8.32;63.17;99047.41;5022198;28;45948;-63
2022/11/22 01:29:40;;;;;;;;;0.50;0.00;;;;;8.28;63.73;99054.47;5052219;28;45009;-62
2022/11/22 01:32:06;;;;;;;;;1.00;1.00;;;;;8.26;64.26;99046.47;5041205;28;45355;-63
2022/11/22 01:34:31;;;;;;;;;1.00;1.00;;;;;8.26;63.55;99049.13;5052089;28;45098;-61
2022/11/22 01:36:57;;;;;;;;;1.00;1.00;;;;;8.05;63.51;99009.03;5021101;28;46844;-63
2022/11/22 01:39:22;;;;;;;;;3.25;0.75;;;;;8.14;63.62;99033.06;5052373;28;44906;-63
2022/11/22 01:41:48;;;;;;;;;2.50;0.00;;;;;8.12;63.50;99017.09;5042441;28;45278;-61
2022/11/22 01:44:32;;;;;;;;;2.75;1.25;;;;;8.15;64.70;99018.00;5051913;28;45005;-64
2022/11/22 01:47:06;;;;;;;;;6.50;2.00;;;;;8.24;64.64;99039.38;5048122;28;45436;-63
2022/11/22 01:49:41;;;;;;;;;2.75;0.00;;;;;8.26;63.71;99041.13;5027160;28;45181;-64
2022/11/22 01:52:14;;;;;;;;;0.00;0.00;;;;;8.17;64.59;99016.25;5049202;28;44993;-63
2022/11/22 01:54:44;;;;;;;;;3.75;1.25;;;;;8.33;64.28;99041.19;5021293;28;45308;-63
2022/11/22 01:57:15;;;;;;;;;0.00;0.00;;;;;8.34;64.60;99041.22;5037518;28;45670;-62
2022/11/22 01:59:47;;;;;;;;;2.00;1.00;;;;;8.33;64.56;99041.19;5037042;28;45412;-64
2022/11/22 02:02:13;;;;;;;;;1.00;1.00;;;;;8.38;64.53;99042.13;5046901;28;45053;-64
2022/11/22 02:04:41;;;;;;;;;2.50;2.00;;;;;8.10;64.11;98983.38;5040524;28;45465;-63
2022/11/22 02:07:34;;;;;;;;;1.00;0.25;;;;;8.36;64.48;99015.50;5046512;28;45327;-64
2022/11/22 02:09:59;;;;;;;;;7.75;3.00;;;;;8.42;64.13;99025.31;5039511;28;45815;-62
2022/11/22 02:12:30;;;;;;;;;2.25;1.00;;;;;8.41;63.83;99027.06;5015826;28;45923;-65
2022/11/22 02:14:57;;;;;;;;;1.00;1.00;;;;;8.42;64.41;99025.31;5034810;28;45688;-65
2022/11/22 02:17:27;;;;;;;;;6.25;1.50;;;;;8.12;64.20;98971.88;5035046;28;46190;-64
2022/11/22 02:19:56;;;;;;;;;1.00;1.00;;;;;8.03;64.89;98976.22;5033837;28;45491;-62
2022/11/22 02:22:44;;;;;;;;;6.00;1.00;;;;;8.35;64.75;99035.03;5036483;28;45421;-65
2022/11/22 02:25:18;;;;;;;;;1.00;1.00;;;;;8.35;64.76;99024.38;5044498;28;45474;-62
2022/11/22 02:27:44;;;;;;;;;2.00;1.00;;;;;8.32;64.99;99008.38;5049665;28;45565;-65
2022/11/22 02:30:12;;;;;;;;;1.00;0.00;;;;;8.36;64.29;99018.16;5024555;28;45483;-62
2022/11/22 02:32:38;;;;;;;;;1.00;0.00;;;;;8.21;65.06;99002.97;5030075;28;45527;-64
2022/11/22 02:35:24;;;;;;;;;1.00;0.00;;;;;8.33;64.30;99027.88;5037284;28;45461;-63
2022/11/22 02:38:06;;;;;;;;;1.50;0.00;;;;;8.30;64.77;99018.13;5034022;28;46356;-63
2022/11/22 02:40:39;;;;;;;;;1.25;0.00;;;;;8.29;64.44;99022.53;5047492;28;45039;-64
2022/11/22 02:43:09;;;;;;;;;0.25;0.25;;;;;8.30;65.28;99032.31;5012228;28;45272;-63
2022/11/22 02:45:34;;;;;;;;;0.25;0.25;;;;;8.30;65.21;99024.34;5037770;28;45552;-63
2022/11/22 02:48:08;;;;;;;;;3.00;1.00;;;;;8.30;64.81;99021.69;5033287;28;46496;-62
2022/11/22 02:50:34;;;;;;;;;0.00;0.00;;;;;8.26;64.98;99022.50;5047277;28;45065;-63
2022/11/22 02:53:00;;;;;;;;;0.00;0.00;;;;;8.28;65.48;99019.88;5051998;28;45029;-63
2022/11/22 02:55:25;;;;;;;;;1.00;1.00;;;;;8.16;65.84;98990.53;5032795;28;45173;-62
2022/11/22 02:57:50;;;;;;;;;0.00;0.00;;;;;8.32;64.79;98997.75;5051442;28;45661;-64
2022/11/22 03:00:16;;;;;;;;;5.00;0.50;;;;;8.35;64.87;98997.78;5049765;28;46044;-64
2022/11/22 03:02:41;;;;;;;;;2.00;1.00;;;;;8.38;65.64;98996.88;5050095;28;45563;-63
2022/11/22 03:05:07;;;;;;;;;1.25;0.75;;;;;8.42;65.66;98996.03;5051243;28;45135;-67
2022/11/22 03:07:32;;;;;;;;;0.00;0.00;;;;;8.41;65.43;98995.13;5032468;28;46790;-62
2022/11/22 03:09:57;;;;;;;;;3.00;0.00;;;;;8.40;65.41;98989.81;5051054;28;45098;-64
2022/11/22 03:12:23;;;;;;;;;0.50;0.00;;;;;8.15;65.13;98940.84;5051205;28;45202;-65
2022/11/22 03:14:48;;;;;;;;;1.00;1.00;;;;;8.45;65.45;98970.38;5050965;28;45277;-64
2022/11/22 03:17:15;;;;;;;;;1.50;1.00;;;;;8.48;65.13;98975.72;5050676;28;45492;-64
2022/11/22 03:19:41;;;;;;;;;0.00;0.00;;;;;8.53;64.83;98975.75;5034777;28;45316;-62
2022/11/22 03:22:06;;;;;;;;;0.50;0.50;;;;;8.55;65.44;98970.44;5055766;28;45006;-63
2022/11/22 03:24:32;;;;;;;;;0.00;0.00;;;;;8.57;65.16;98976.66;5057808;28;45029;-64
2022/11/22 03:26:57;;;;;;;;;1.00;0.00;;;;;8.56;65.09;98970.41;5055507;28;45159;-64
2022/11/22 03:29:22;;;;;;;;;1.50;0.00;;;;;8.48;64.90;98953.53;5035484;28;44932;-62
2022/11/22 03:31:48;;;;;;;;;4.25;0.00;;;;;8.40;64.73;98941.94;5053481;28;45077;-63
2022/11/22 03:34:13;;;;;;;;;0.25;0.25;;;;;8.38;65.46;98951.66;5036129;28;45058;-63
2022/11/22 03:36:39;;;;;;;;;2.00;0.25;;;;;8.49;64.97;98963.28;5053423;28;45481;-65
2022/11/22 03:39:04;;;;;;;;;3.00;0.00;;;;;8.53;65.20;98973.09;5051620;28;45124;-65
2022/11/22 03:41:30;;;;;;;;;0.00;0.00;;;;;8.49;66.14;98971.28;5052940;28;45435;-63
2022/11/22 03:43:55;;;;;;;;;1.00;0.00;;;;;8.46;66.29;98965.91;5054501;28;45377;-62
2022/11/22 03:46:21;;;;;;;;;0.00;0.00;;;;;8.40;66.38;98953.44;5035714;28;46878;-64
2022/11/22 03:48:46;;;;;;;;;0.00;0.00;;;;;8.52;66.34;98970.41;5035733;28;45074;-62
2022/11/22 03:51:12;;;;;;;;;2.00;0.50;;;;;8.54;65.80;98965.97;5048176;28;45049;-65
2022/11/22 03:53:37;;;;;;;;;3.25;0.75;;;;;8.53;66.16;98965.09;5053730;28;45054;-63
2022/11/22 03:56:03;;;;;;;;;3.50;0.00;;;;;8.49;65.58;98952.63;5053814;28;46177;-65
2022/11/22 03:58:29;;;;;;;;;2.00;0.75;;;;;8.58;65.76;98960.69;5031721;28;45306;-65
2022/11/22 04:00:56;;;;;;;;;1.25;1.25;;;;;8.61;65.75;98971.34;5052023;28;45214;-63
2022/11/22 04:03:21;;;;;;;;;2.75;1.00;;;;;8.59;66.22;98962.44;5051649;28;45482;-64
2022/11/22 04:05:47;;;;;;;;;2.75;0.50;;;;;8.59;65.59;98975.75;5052116;28;45369;-63
2022/11/22 04:08:13;;;;;;;;;4.25;1.25;;;;;8.60;66.83;98974.88;5033790;28;45267;-65
2022/11/22 04:10:38;;;;;;;;;0.33;0.33;;;;;8.60;66.91;98974.00;5030648;28;45042;-62
2022/11/22 04:13:03;;;;;;;;;0.00;0.00;;;;;8.56;65.92;98965.09;5031651;28;45014;-63
2022/11/22 04:15:29;;;;;;;;;2.00;1.00;;;;;8.60;66.13;98974.00;5031342;28;45632;-65
2022/11/22 04:17:54;;;;;;;;;1.00;0.00;;;;;8.61;67.04;98973.09;5031759;28;45066;-64
2022/11/22 04:23:15;;;;;;;;;1.00;1.00;;;;;8.67;66.37;98962.50;5034018;28;45204;-66
2022/11/22 04:25:43;;;;;;;;;0.00;0.00;;;;;8.67;66.44;98959.84;5033096;28;45838;-63
2022/11/22 04:28:10;;;;;;;;;1.00;1.00;;;;;8.72;66.71;98951.88;5032697;28;45226;-62
2022/11/22 04:33:22;;;;;;;;;1.00;1.00;;;;;8.65;66.83;98927.00;5068994;28;45164;-61
2022/11/22 04:35:48;;;;;;;;;0.00;0.00;;;;;8.51;66.49;98894.97;5073924;28;45814;-62
2022/11/22 04:38:15;;;;;;;;;0.00;0.00;;;;;8.69;67.04;98919.91;5055417;28;45064;-61
2022/11/22 04:40:41;;;;;;;;;2.25;0.50;;;;;8.73;66.30;98906.63;5071916;28;45302;-62
2022/11/22 04:45:52;;;;;;;;;1.00;0.00;;;;;8.74;65.82;98905.72;5065197;28;45446;-63
2022/11/22 04:48:18;;;;;;;;;1.00;1.00;;;;;8.79;66.44;98924.38;5067675;28;45547;-61
2022/11/22 04:53:29;;;;;;;;;0.75;0.00;;;;;8.84;65.83;98931.53;5073103;28;45169;-63
2022/11/22 04:55:55;;;;;;;;;1.00;1.00;;;;;8.81;66.25;98920.84;5073446;28;45246;-63
2022/11/22 04:58:21;;;;;;;;;1.00;1.00;;;;;8.83;66.76;98929.75;5055129;28;45092;-62
2022/11/22 05:00:47;;;;;;;;;0.00;0.00;;;;;8.87;66.83;98932.41;5073473;28;45020;-63
2022/11/22 05:03:13;;;;;;;;;0.00;0.00;;;;;8.78;65.91;98919.97;5073804;28;45677;-63
2022/11/22 05:05:41;;;;;;;;;1.00;1.00;;;;;8.90;66.18;98940.41;5073228;28;45037;-63
2022/11/22 05:08:08;;;;;;;;;1.00;1.00;;;;;8.80;66.50;98919.06;5071956;28;45190;-62
2022/11/22 05:13:21;;;;;;;;;0.75;0.00;;;;;8.88;65.64;98921.78;5073735;28;45201;-63
2022/11/22 05:15:46;;;;;;;;;0.00;0.00;;;;;8.95;66.35;98928.88;5072987;28;45052;-63
2022/11/22 05:18:12;;;;;;;;;1.33;0.00;;;;;8.91;66.16;98923.53;5071635;28;45002;-64
2022/11/22 05:20:37;;;;;;;;;0.00;0.00;;;;;8.92;66.03;98922.66;5070290;28;46227;-62
2022/11/22 05:25:47;;;;;;;;;1.00;0.00;;;;;8.97;66.36;98943.09;5066458;28;45135;-63
2022/11/22 05:28:12;;;;;;;;;4.33;1.00;;;;;8.96;66.45;98920.03;5070688;28;45300;-62
2022/11/22 05:30:38;;;;;;;;;0.33;0.33;;;;;8.99;66.18;98938.69;5070303;28;45335;-63
2022/11/22 05:33:03;;;;;;;;;1.33;0.00;;;;;9.01;66.93;98939.56;5072460;28;45302;-63
2022/11/22 05:35:29;;;;;;;;;0.00;0.00;;;;;9.01;67.34;98933.38;5072917;28;45596;-63
2022/11/22 05:37:58;;;;;;;;;0.00;0.00;;;;;9.01;67.11;98938.69;5067147;28;44950;-63
2022/11/22 05:40:24;;;;;;;;;0.75;0.00;;;;;9.00;68.14;98931.56;5065940;28;44985;-63
2022/11/22 05:42:50;;;;;;;;;0.00;0.00;;;;;8.96;67.86;98932.44;5069089;28;45416;-63
2022/11/22 05:45:15;;;;;;;;;1.67;0.67;;;;;8.92;68.64;98931.53;5072996;28;45531;-63
2022/11/22 05:47:40;;;;;;;;;0.00;0.00;;;;;8.81;69.18;98931.50;5068688;28;45086;-63
2022/11/22 05:50:07;;;;;;;;;2.33;0.00;;;;;8.85;70.22;98937.72;5070859;28;45060;-64
2022/11/22 05:52:32;;;;;;;;;4.75;1.00;;;;;8.82;69.65;98937.72;5054511;28;45175;-61
2022/11/22 05:54:58;;;;;;;;;0.00;0.00;;;;;8.87;70.09;98943.94;5071824;28;45711;-63
2022/11/22 05:57:23;;;;;;;;;1.00;0.00;;;;;8.79;69.99;98948.34;5072692;28;45009;-61
2022/11/22 05:59:48;;;;;;;;;0.00;0.00;;;;;8.79;69.70;98946.59;5072690;28;45166;-63
2022/11/22 06:02:14;;;;;;;;;0.25;0.25;;;;;8.87;70.49;98961.72;5073232;28;45251;-62
2022/11/22 06:04:39;;;;;;;;;0.00;0.00;;;;;8.81;70.09;98947.50;5074629;28;45518;-62
2022/11/22 06:07:04;;;;;;;;;0.00;0.00;;;;;8.90;70.52;98948.41;5071635;28;44964;-62
2022/11/22 06:09:30;;;;;;;;;1.75;0.00;;;;;8.90;69.93;98951.94;5076229;28;45496;-64
2022/11/22 06:11:55;;;;;;;;;2.00;0.75;;;;;8.88;70.16;98947.53;5068523;28;45257;-63
2022/11/22 06:14:20;;;;;;;;;2.75;0.00;;;;;8.78;70.69;98922.63;5072538;28;45913;-63
2022/11/22 06:16:46;;;;;;;;;2.00;1.50;;;;;8.85;70.45;98929.75;5051849;28;45794;-63
2022/11/22 06:19:12;;;;;;;;;1.00;1.00;;;;;8.92;70.30;98931.53;5072576;28;45109;-65
2022/11/22 06:21:37;;;;;;;;;1.00;1.00;;;;;8.96;70.69;98933.34;5079052;28;45488;-63
2022/11/22 06:24:03;;;;;;;;;1.33;1.33;;;;;8.99;69.81;98941.34;5071262;28;45770;-62
2022/11/22 06:26:28;;;;;;;;;0.00;0.00;;;;;8.90;70.00;98921.78;5072140;28;44953;-62
2022/11/22 06:28:54;;;;;;;;;0.25;0.25;;;;;8.97;70.28;98935.09;5051279;28;45063;-62
2022/11/22 06:31:22;;;;;;;;;0.00;0.00;;;;;8.98;70.26;98934.22;5073905;28;45077;-62
2022/11/22 06:33:48;;;;;;;;;1.00;1.00;;;;;9.03;70.80;98945.78;5071519;28;45703;-61
2022/11/22 06:36:15;;;;;;;;;3.00;1.00;;;;;9.03;70.27;98950.22;5067272;28;45228;-62
2022/11/22 06:38:42;;;;;;;;;0.67;0.00;;;;;8.90;70.72;98925.31;5069874;28;45169;-64
2022/11/22 06:41:13;;;;;;;;;0.00;0.00;;;;;8.90;70.31;98933.31;5072055;28;45248;-66
2022/11/22 06:43:40;;;;;;;;;1.00;0.00;;;;;8.96;70.14;98935.09;5066707;28;45707;-64
2022/11/22 06:46:06;;;;;;;;;1.75;1.00;;;;;9.04;70.38;98944.91;5063184;28;45177;-63
2022/11/22 06:48:35;;;;;;;;;3.00;1.00;;;;;9.06;70.93;98942.25;5068886;28;45095;-63
2022/11/22 06:51:02;;;;;;;;;2.00;2.00;;;;;9.05;69.83;98951.13;5053055;28;45037;-64
2022/11/22 06:53:32;;;;;;;;;1.00;0.75;;;;;9.01;70.62;98934.25;5051800;28;47560;-64
2022/11/22 06:56:09;;;;;;;;;0.25;0.25;;;;;9.06;69.63;98952.00;5073664;28;45252;-64
2022/11/22 06:58:35;;;;;;;;;0.67;0.00;;;;;9.10;69.43;98954.69;5074078;28;45086;-64
2022/11/22 07:01:04;;;;;;;;;1.00;1.00;;;;;9.14;70.06;98953.81;5072659;28;45120;-63
2022/11/22 07:03:29;;;;;;;;;1.00;1.00;;;;;9.03;69.21;98931.59;5070893;28;46213;-63
2022/11/22 07:05:55;;;;;;;;;1.00;1.00;;;;;9.19;70.12;98954.72;5070555;28;45173;-66
2022/11/22 07:08:21;;;;;;;;;2.00;1.00;;;;;9.20;69.19;98963.59;5048241;28;45154;-63
2022/11/22 07:10:46;;;;;;;;;0.00;0.00;;;;;9.17;69.35;98969.81;5057495;28;45429;-64
2022/11/22 07:13:11;;;;;;;;;3.00;3.00;;;;;9.22;69.08;98961.81;5068165;28;46770;-63
2022/11/22 07:15:37;;;;;;;;;2.00;2.00;;;;;9.16;69.14;98957.38;5064376;28;45245;-64
2022/11/22 07:18:03;;;;;;;;;2.67;1.00;;;;;9.27;68.69;98968.06;5037680;28;46009;-63
2022/11/22 07:20:28;;;;;;;;;2.00;1.00;;;;;9.30;68.79;98972.50;5037691;28;45616;-64
2022/11/22 07:22:53;;;;;;;;;7.00;1.00;;;;;9.23;68.19;98952.97;5063672;28;45498;-63
2022/11/22 07:25:19;;;;;;;;;1.00;1.00;;;;;9.26;68.84;98968.97;5067656;28;45722;-65
2022/11/22 07:27:44;;;;;;;;;3.75;2.75;;;;;9.27;69.03;98976.03;5058771;28;45354;-63
2022/11/22 07:30:10;;;;;;;;;2.50;1.00;;;;;9.32;69.13;98971.66;5056574;28;45532;-63
2022/11/22 07:32:35;;;;;;;;;1.00;1.00;;;;;9.32;68.51;98973.41;5056074;28;45673;-63
2022/11/22 07:35:00;;;;;;;;;10.75;8.25;;;;;9.30;68.28;98993.84;5055302;28;45576;-64
2022/11/22 07:37:26;;;;;;;;;2.75;1.00;;;;;9.30;69.08;99002.72;5052128;28;45372;-65
2022/11/22 07:39:52;;;;;;;;;1.75;1.00;;;;;9.29;68.89;99000.94;5056366;28;45373;-64
2022/11/22 07:42:18;;;;;;;;;4.00;3.00;;;;;9.23;68.18;98990.25;5056386;28;46152;-65
2022/11/22 07:44:43;;;;;;;;;1.50;1.00;;;;;9.12;68.38;98990.22;5055967;28;45247;-63
2022/11/22 07:47:08;;;;;;;;;1.00;1.00;;;;;9.20;68.49;98998.25;5056646;28;45485;-63
2022/11/22 07:49:34;;;;;;;;;0.50;0.50;;;;;9.18;68.88;99005.34;5056267;28;45512;-63
2022/11/22 07:51:59;;;;;;;;;1.00;1.00;;;;;9.15;68.98;99000.00;5037833;28;47232;-65
2022/11/22 07:54:24;;;;;;;;;0.00;0.00;;;;;9.07;68.46;98989.31;5051188;28;45267;-64
2022/11/22 07:56:50;;;;;;;;;4.50;2.00;;;;;9.06;69.78;98994.63;5053920;28;45446;-62
2022/11/22 07:59:15;;;;;;;;;3.67;1.00;;;;;9.19;69.26;99008.00;5052526;28;45312;-64
2022/11/22 08:01:41;;;;;;;;;1.00;1.00;;;;;9.09;69.42;98998.22;5055617;28;46026;-65
2022/11/22 08:04:06;;;;;;;;;0.00;0.00;;;;;9.20;69.30;99012.44;5061962;28;45412;-63
2022/11/22 08:06:31;;;;;;;;;3.00;2.00;;;;;9.15;70.32;99003.53;5056479;28;45722;-62
2022/11/22 08:08:57;;;;;;;;;7.75;3.75;;;;;9.19;70.16;99001.81;5047282;28;45691;-67
2022/11/22 08:11:22;;;;;;;;;3.75;1.50;;;;;9.26;69.89;99022.25;5054029;28;46262;-62
2022/11/22 08:13:47;;;;;;;;;4.00;1.00;;;;;9.08;70.83;98979.56;5052695;28;45489;-63
2022/11/22 08:16:16;;;;;;;;;4.00;2.25;;;;;9.28;71.13;99020.47;5053963;28;45412;-62
2022/11/22 08:18:46;;;;;;;;;2.00;0.00;;;;;9.32;71.40;99019.63;5055368;28;45378;-64
2022/11/22 08:21:13;;;;;;;;;6.00;3.25;;;;;9.33;71.45;99021.38;5055313;28;46140;-64
2022/11/22 08:23:39;;;;;;;;;1.00;1.00;;;;;9.36;70.38;99024.06;5052821;28;45559;-64
2022/11/22 08:26:07;;;;;;;;;7.25;6.00;;;;;9.30;70.02;99013.38;5052537;28;45535;-63
2022/11/22 08:28:33;;;;;;;;;4.00;3.00;;;;;9.36;70.86;99032.06;5033848;28;45466;-64
2022/11/22 08:31:00;;;;;;;;;10.50;5.50;;;;;9.40;70.68;99027.63;5030389;28;46967;-64
2022/11/22 08:33:26;;;;;;;;;24.75;20.00;;;;;9.37;70.91;99012.53;5049248;28;45516;-64
2022/11/22 08:35:52;;;;;;;;;5.25;3.25;;;;;9.40;70.32;99017.88;5055079;28;45479;-63
2022/11/22 08:38:17;;;;;;;;;5.50;5.00;;;;;9.40;70.53;99012.53;5054217;28;45622;-64
2022/11/22 08:40:43;;;;;;;;;3.50;2.25;;;;;9.48;70.59;99032.97;5035180;28;45321;-62
2022/11/22 08:43:09;;;;;;;;;1.00;1.00;;;;;9.53;70.77;99044.53;5031316;28;49345;-66
2022/11/22 08:45:34;;;;;;;;;2.00;2.00;;;;;9.51;70.34;99047.22;5047992;28;45668;-65
2022/11/22 08:47:59;;;;;;;;;2.00;1.00;;;;;9.43;70.59;99016.09;5033641;28;45713;-66
2022/11/22 08:50:25;;;;;;;;;3.50;2.00;;;;;9.45;70.55;99031.19;5032756;28;46385;-67
2022/11/22 08:52:50;;;;;;;;;15.25;10.25;;;;;9.55;70.99;99045.44;5062585;28;45266;-66
2022/11/22 08:55:16;;;;;;;;;2.75;1.25;;;;;9.62;70.53;99043.66;5066227;28;45351;-67
2022/11/22 08:57:41;;;;;;;;;10.00;4.50;;;;;9.14;69.99;98958.25;5065954;28;45293;-68
2022/11/22 09:00:07;;;;;;;;;14.25;9.00;;;;;9.60;70.56;99033.00;5032127;28;47286;-65
2022/11/22 09:02:33;;;;;;;;;7.00;3.75;;;;;9.60;70.46;99025.00;5049804;28;45624;-66
2022/11/22 09:04:58;;;;;;;;;8.25;3.00;;;;;9.64;69.87;99029.47;5049338;28;45878;-68
2022/11/22 09:07:23;;;;;;;;;3.75;3.50;;;;;9.71;69.75;99033.91;5033177;28;45510;-67
2022/11/22 09:09:49;;;;;;;;;3.75;1.75;;;;;9.75;69.88;99033.06;5033190;28;46988;-66
2022/11/22 09:12:15;;;;;;;;;3.33;2.00;;;;;9.77;69.59;99041.94;5031803;28;45686;-66
2022/11/22 09:14:41;;;;;;;;;2.00;1.67;;;;;9.74;69.48;99043.72;5048627;28;45667;-68
2022/11/22 09:17:06;;;;;;;;;0.00;0.00;;;;;9.71;69.63;99025.91;5047964;28;45648;-67
2022/11/22 09:19:31;;;;;;;;;4.00;3.00;;;;;9.81;69.46;99039.28;5049654;28;46197;-67
2022/11/22 09:21:57;;;;;;;;;4.00;3.25;;;;;9.86;69.95;99045.53;5035004;28;45522;-68
2022/11/22 09:24:22;;;;;;;;;4.00;1.00;;;;;9.84;69.40;99065.97;5053356;28;45623;-68
2022/11/22 09:26:47;;;;;;;;;2.00;1.67;;;;;9.91;69.18;99049.97;5054917;28;46213;-68
2022/11/22 09:29:14;;;;;;;;;6.00;3.00;;;;;9.99;69.06;99043.75;5045005;28;47478;-66
2022/11/22 09:31:40;;;;;;;;;3.25;2.00;;;;;10.06;68.79;99038.41;5071851;28;46054;-68
2022/11/22 09:34:07;;;;;;;;;3.00;2.67;;;;;10.11;67.98;99067.78;5070432;28;45094;-69
2022/11/22 09:36:32;;;;;;;;;2.00;1.00;;;;;10.15;68.39;99050.91;5050042;28;45719;-67
2022/11/22 09:38:58;;;;;;;;;4.33;2.00;;;;;10.14;68.30;99049.09;5052549;28;46364;-69
2022/11/22 09:41:42;;;;;;;;;2.67;2.00;;;;;10.24;68.31;99042.00;5034496;28;45593;-70
2022/11/22 09:44:17;;;;;;;;;4.67;2.67;;;;;10.28;67.92;99054.47;5053057;28;45378;-68
2022/11/22 09:46:42;;;;;;;;;3.33;1.67;;;;;10.32;67.04;99049.13;5052597;28;45361;-69
2022/11/22 09:49:22;;;;;;;;;5.00;2.00;;;;;10.38;66.84;99048.25;5051806;28;46085;-68
2022/11/22 09:52:18;;;;;;;;;3.67;2.00;;;;;10.42;66.56;99050.03;5052925;28;45528;-68
2022/11/22 09:54:54;;;;;;;;;2.50;1.00;;;;;10.49;66.12;99053.56;5054603;28;45522;-69
2022/11/22 09:57:29;;;;;;;;;4.00;2.00;;;;;10.47;66.14;99034.88;5054906;28;45452;-69
2022/11/22 10:00:04;;;;;;;;;1.00;1.00;;;;;10.58;65.50;99040.22;5054080;28;46514;-69
2022/11/22 10:02:34;;;;;;;;;3.33;2.67;;;;;10.63;65.55;99042.91;5035591;28;45517;-69
2022/11/22 10:05:03;;;;;;;;;4.67;3.67;;;;;10.68;65.50;99035.78;5034505;28;45446;-68
2022/11/22 10:07:46;;;;;;;;;6.75;2.50;;;;;10.77;65.75;99040.19;5038736;28;45625;-68
2022/11/22 10:10:18;;;;;;;;;3.00;2.00;;;;;10.82;65.03;99052.66;5041998;28;46065;-68
2022/11/22 10:12:53;;;;;;;;;2.67;1.33;;;;;10.88;65.06;99057.09;5055097;28;45441;-68
2022/11/22 10:15:21;;;;;;;;;3.67;3.00;;;;;10.92;64.37;99044.63;5054687;28;45600;-68
2022/11/22 10:17:59;;;;;;;;;3.00;1.67;;;;;10.91;64.15;99034.84;5054619;28;45603;-69
2022/11/22 10:20:28;;;;;;;;;1.00;0.33;;;;;10.97;64.22;99046.41;5036000;28;47022;-69
2022/11/22 10:22:55;;;;;;;;;3.00;3.00;;;;;11.06;63.66;99073.06;5054389;28;45502;-69
2022/11/22 10:25:40;;;;;;;;;5.00;3.33;;;;;11.05;64.23;99051.69;5053767;28;45294;-68
2022/11/22 10:28:35;;;;;;;;;3.33;3.33;;;;;11.14;63.55;99062.38;5047675;28;45517;-69
2022/11/22 10:31:16;;;;;;;;;4.67;2.67;;;;;11.21;63.27;99076.59;5050965;28;45367;-69
2022/11/22 10:34:07;;;;;;;;;2.00;2.00;;;;;11.26;63.19;99074.81;5035176;28;45431;-69
2022/11/22 10:37:02;;;;;;;;;6.00;2.00;;;;;11.30;62.80;99078.34;5047787;28;45436;-69
2022/11/22 10:39:58;;;;;;;;;3.67;1.67;;;;;11.37;63.01;99091.69;5054727;28;45414;-68
2022/11/22 10:42:32;;;;;;;;;4.00;4.00;;;;;11.45;62.82;99083.66;5054165;28;45535;-69
2022/11/22 10:45:14;;;;;;;;;4.33;2.33;;;;;11.53;62.76;99089.88;5054077;28;45519;-69
2022/11/22 10:47:55;;;;;;;;;11.33;2.00;;;;;11.61;61.31;99081.78;5054544;28;45511;-69
2022/11/22 10:50:34;;;;;;;;;2.33;2.33;;;;;11.68;61.45;99083.56;5048010;28;45690;-69
2022/11/22 10:53:13;;;;;;;;;6.00;4.00;;;;;11.72;61.21;99076.41;5053846;28;45425;-68
2022/11/22 10:55:41;;;;;;;;;3.00;1.00;;;;;11.74;60.24;99090.66;5036571;28;45530;-71
2022/11/22 10:58:16;;;;;;;;;3.00;2.67;;;;;11.78;59.83;99093.31;5053956;28;45467;-70
2022/11/22 11:00:50;;;;;;;;;5.00;2.00;;;;;11.75;59.56;99063.88;5036048;28;45553;-70
2022/11/22 11:03:34;;;;;;;;;4.00;1.33;;;;;11.82;59.63;99079.91;5035580;28;46755;-68
2022/11/22 11:06:27;;;;;;;;;5.00;3.67;;;;;11.83;59.32;99085.25;5047819;28;45592;-68
2022/11/22 11:09:01;;;;;;;;;4.00;3.00;;;;;11.84;58.72;99084.34;5035562;28;45312;-69
2022/11/22 11:11:29;;;;;;;;;4.67;3.00;;;;;11.85;58.50;99091.47;5054220;28;45420;-68
2022/11/22 11:14:06;;;;;;;;;3.00;2.00;;;;;11.84;58.93;99076.31;5035240;28;46657;-69
2022/11/22 11:16:35;;;;;;;;;3.67;2.00;;;;;11.81;58.60;99062.94;5035886;28;44838;-69
2022/11/22 11:19:22;;;;;;;;;4.00;2.33;;;;;12.03;58.87;99095.88;5054319;28;45357;-69
2022/11/22 11:22:14;;;;;;;;;2.67;2.00;;;;;12.05;57.57;99099.44;5035638;28;45490;-70
2022/11/22 11:24:41;;;;;;;;;3.67;3.67;;;;;12.06;58.25;99095.88;5053487;28;46050;-69
2022/11/22 11:27:13;;;;;;;;;5.67;4.00;;;;;12.00;57.00;99090.53;5053229;28;45332;-69
2022/11/22 11:29:56;;;;;;;;;5.00;4.00;;;;;12.09;58.40;99100.28;5053847;28;45256;-69
2022/11/22 11:32:24;;;;;;;;;6.33;4.67;;;;;12.08;58.68;99093.19;5053662;28;45440;-69
2022/11/22 11:35:00;;;;;;;;;2.33;2.00;;;;;12.04;57.71;99105.66;5053445;28;45314;-69
2022/11/22 11:37:35;;;;;;;;;6.00;5.00;;;;;11.96;57.30;99080.72;5053263;28;45426;-68
2022/11/22 11:40:02;;;;;;;;;4.00;2.00;;;;;12.11;58.11;99098.47;5035759;28;45363;-69
2022/11/22 11:42:30;;;;;;;;;3.00;3.00;;;;;12.07;57.12;99086.03;5056875;28;45551;-69
2022/11/22 11:45:23;;;;;;;;;5.67;2.67;;;;;12.12;56.92;99097.59;5056428;28;45412;-69
2022/11/22 11:47:49;;;;;;;;;2.67;1.00;;;;;12.16;56.87;99086.00;5056983;28;45448;-69
2022/11/22 11:50:20;;;;;;;;;9.00;3.00;;;;;12.21;57.77;99088.59;5038894;28;45567;-69
2022/11/22 11:53:05;;;;;;;;;9.33;8.00;;;;;12.30;56.82;99094.78;5057739;28;45392;-70
2022/11/22 11:55:34;;;;;;;;;3.00;2.00;;;;;12.30;56.36;99091.22;5052754;28;46108;-69
2022/11/22 11:58:02;;;;;;;;;4.00;2.00;;;;;12.25;56.62;99085.03;5057968;28;45634;-69
2022/11/22 12:00:36;;;;;;;;;4.00;2.67;;;;;12.28;56.73;99087.69;5042154;28;45391;-69
2022/11/22 12:03:07;;;;;;;;;4.00;3.00;;;;;12.32;56.27;99086.75;5038529;28;45472;-69